sensor_id;sensor_type;location;lat;lon;timestamp;temperature;humidity
8643;DHT22;4359;49.358;11.256;2022-08-24T00:01:39;13.00;99.90
8643;DHT22;4359;49.358;11.256;2022-08-24T00:07:27;12.90;99.90
8643;DHT22;4359;49.358;11.256;2022-08-24T00:09:53;12.80;99.90
8643;DHT22;4359;49.358;11.256;2022-08-24T00:12:19;12.80;99.90
8643;DHT22;4359;49.358;11.256;2022-08-24T00:14:44;12.70;99.90
8643;DHT22;4359;49.358;11.256;2022-08-24T00:17:10;12.70;99.90
8643;DHT22;4359;49.358;11.256;2022-08-24T00:19:36;12.60;99.90
8643;DHT22;4359;49.358;11.256;2022-08-24T00:22:03;12.60;99.90
8643;DHT22;4359;49.358;11.256;2022-08-24T00:24:29;12.60;99.90
8643;DHT22;4359;49.358;11.256;2022-08-24T00:26:55;12.50;99.90
8643;DHT22;4359;49.358;11.256;2022-08-24T00:29:21;12.50;99.90
8643;DHT22;4359;49.358;11.256;2022-08-24T00:31:48;12.50;99.90
8643;DHT22;4359;49.358;11.256;2022-08-24T00:34:14;12.50;99.90
8643;DHT22;4359;49.358;11.256;2022-08-24T00:36:42;12.40;99.90
8643;DHT22;4359;49.358;11.256;2022-08-24T00:39:08;12.40;99.90
8643;DHT22;4359;49.358;11.256;2022-08-24T00:41:34;12.40;99.90
8643;DHT22;4359;49.358;11.256;2022-08-24T00:44:04;12.30;99.90
8643;DHT22;4359;49.358;11.256;2022-08-24T00:46:42;12.30;99.90
8643;DHT22;4359;49.358;11.256;2022-08-24T00:49:28;12.20;99.90
8643;DHT22;4359;49.358;11.256;2022-08-24T00:54:39;12.20;99.90
8643;DHT22;4359;49.358;11.256;2022-08-24T00:57:06;12.10;99.90
8643;DHT22;4359;49.358;11.256;2022-08-24T00:59:47;12.10;99.90
8643;DHT22;4359;49.358;11.256;2022-08-24T01:02:24;12.10;99.90
8643;DHT22;4359;49.358;11.256;2022-08-24T01:04:56;12.00;99.90
8643;DHT22;4359;49.358;11.256;2022-08-24T01:07:24;12.00;99.90
8643;DHT22;4359;49.358;11.256;2022-08-24T01:09:52;11.90;99.90
8643;DHT22;4359;49.358;11.256;2022-08-24T01:12:18;11.90;99.90
8643;DHT22;4359;49.358;11.256;2022-08-24T01:14:44;11.80;99.90
8643;DHT22;4359;49.358;11.256;2022-08-24T01:17:10;11.80;99.90
8643;DHT22;4359;49.358;11.256;2022-08-24T01:19:57;11.80;99.90
8643;DHT22;4359;49.358;11.256;2022-08-24T01:22:42;11.80;99.90
8643;DHT22;4359;49.358;11.256;2022-08-24T01:25:12;11.80;99.90
8643;DHT22;4359;49.358;11.256;2022-08-24T01:27:39;11.80;99.90
8643;DHT22;4359;49.358;11.256;2022-08-24T01:30:09;11.80;99.90
8643;DHT22;4359;49.358;11.256;2022-08-24T01:32:35;11.70;99.90
8643;DHT22;4359;49.358;11.256;2022-08-24T01:35:01;11.70;99.90
8643;DHT22;4359;49.358;11.256;2022-08-24T01:37:28;11.70;99.90
8643;DHT22;4359;49.358;11.256;2022-08-24T01:39:55;11.70;99.90
8643;DHT22;4359;49.358;11.256;2022-08-24T01:42:21;11.70;99.90
8643;DHT22;4359;49.358;11.256;2022-08-24T01:44:47;11.60;99.90
8643;DHT22;4359;49.358;11.256;2022-08-24T01:47:15;11.60;99.90
8643;DHT22;4359;49.358;11.256;2022-08-24T01:49:44;11.60;99.90
8643;DHT22;4359;49.358;11.256;2022-08-24T01:52:14;11.60;99.90
8643;DHT22;4359;49.358;11.256;2022-08-24T01:54:41;11.60;99.90
8643;DHT22;4359;49.358;11.256;2022-08-24T01:57:07;11.60;99.90
8643;DHT22;4359;49.358;11.256;2022-08-24T01:59:33;11.60;99.90
8643;DHT22;4359;49.358;11.256;2022-08-24T02:02:13;11.60;99.90
8643;DHT22;4359;49.358;11.256;2022-08-24T02:04:40;11.60;99.90
8643;DHT22;4359;49.358;11.256;2022-08-24T02:07:05;11.50;99.90
8643;DHT22;4359;49.358;11.256;2022-08-24T02:09:33;11.50;99.90
8643;DHT22;4359;49.358;11.256;2022-08-24T02:11:59;11.40;99.90
8643;DHT22;4359;49.358;11.256;2022-08-24T02:14:25;11.40;99.90
8643;DHT22;4359;49.358;11.256;2022-08-24T02:16:52;11.30;99.90
8643;DHT22;4359;49.358;11.256;2022-08-24T02:19:17;11.30;99.90
8643;DHT22;4359;49.358;11.256;2022-08-24T02:21:43;11.30;99.90
8643;DHT22;4359;49.358;11.256;2022-08-24T02:24:09;11.30;99.90
8643;DHT22;4359;49.358;11.256;2022-08-24T02:26:35;11.30;99.90
8643;DHT22;4359;49.358;11.256;2022-08-24T02:29:00;11.30;99.90
8643;DHT22;4359;49.358;11.256;2022-08-24T02:31:26;11.20;99.90
8643;DHT22;4359;49.358;11.256;2022-08-24T02:33:52;11.10;99.90
8643;DHT22;4359;49.358;11.256;2022-08-24T02:36:17;11.10;99.90
8643;DHT22;4359;49.358;11.256;2022-08-24T02:38:43;11.10;99.90
8643;DHT22;4359;49.358;11.256;2022-08-24T02:41:11;11.00;99.90
8643;DHT22;4359;49.358;11.256;2022-08-24T02:43:37;11.00;99.90
8643;DHT22;4359;49.358;11.256;2022-08-24T02:46:03;11.00;99.90
8643;DHT22;4359;49.358;11.256;2022-08-24T02:48:28;11.00;99.90
8643;DHT22;4359;49.358;11.256;2022-08-24T02:50:54;11.00;99.90
8643;DHT22;4359;49.358;11.256;2022-08-24T02:53:20;11.00;99.90
8643;DHT22;4359;49.358;11.256;2022-08-24T02:55:46;11.00;99.90
8643;DHT22;4359;49.358;11.256;2022-08-24T02:58:13;11.00;99.90
8643;DHT22;4359;49.358;11.256;2022-08-24T03:00:41;11.00;99.90
8643;DHT22;4359;49.358;11.256;2022-08-24T03:03:08;11.00;99.90
8643;DHT22;4359;49.358;11.256;2022-08-24T03:05:34;11.10;99.90
8643;DHT22;4359;49.358;11.256;2022-08-24T03:08:00;11.10;99.90
8643;DHT22;4359;49.358;11.256;2022-08-24T03:10:26;11.00;99.90
8643;DHT22;4359;49.358;11.256;2022-08-24T03:12:52;11.00;99.90
8643;DHT22;4359;49.358;11.256;2022-08-24T03:15:19;10.90;99.90
8643;DHT22;4359;49.358;11.256;2022-08-24T03:17:47;10.90;99.90
8643;DHT22;4359;49.358;11.256;2022-08-24T03:20:16;10.90;99.90
8643;DHT22;4359;49.358;11.256;2022-08-24T03:22:42;10.80;99.90
8643;DHT22;4359;49.358;11.256;2022-08-24T03:25:09;10.80;99.90
8643;DHT22;4359;49.358;11.256;2022-08-24T03:30:05;10.70;99.90
8643;DHT22;4359;49.358;11.256;2022-08-24T03:32:31;10.70;99.90
8643;DHT22;4359;49.358;11.256;2022-08-24T03:34:57;10.70;99.90
8643;DHT22;4359;49.358;11.256;2022-08-24T03:37:23;10.70;99.90
8643;DHT22;4359;49.358;11.256;2022-08-24T03:39:49;10.60;99.90
8643;DHT22;4359;49.358;11.256;2022-08-24T03:42:16;10.60;99.90
8643;DHT22;4359;49.358;11.256;2022-08-24T03:44:42;10.60;99.90
8643;DHT22;4359;49.358;11.256;2022-08-24T03:47:08;10.60;99.90
8643;DHT22;4359;49.358;11.256;2022-08-24T03:49:37;10.60;99.90
8643;DHT22;4359;49.358;11.256;2022-08-24T03:52:04;10.60;99.90
8643;DHT22;4359;49.358;11.256;2022-08-24T03:54:30;10.60;99.90
8643;DHT22;4359;49.358;11.256;2022-08-24T03:56:56;10.60;99.90
8643;DHT22;4359;49.358;11.256;2022-08-24T03:59:23;10.70;99.90
8643;DHT22;4359;49.358;11.256;2022-08-24T04:01:49;11.00;99.90
8643;DHT22;4359;49.358;11.256;2022-08-24T04:04:15;11.20;99.90
8643;DHT22;4359;49.358;11.256;2022-08-24T04:06:41;11.30;99.90
8643;DHT22;4359;49.358;11.256;2022-08-24T04:09:09;11.40;99.90
8643;DHT22;4359;49.358;11.256;2022-08-24T04:11:35;11.30;99.90
8643;DHT22;4359;49.358;11.256;2022-08-24T04:14:00;11.20;99.90
8643;DHT22;4359;49.358;11.256;2022-08-24T04:16:27;11.10;99.90
8643;DHT22;4359;49.358;11.256;2022-08-24T04:18:55;11.00;99.90
8643;DHT22;4359;49.358;11.256;2022-08-24T04:21:27;11.00;99.90
8643;DHT22;4359;49.358;11.256;2022-08-24T04:23:54;11.00;99.90
8643;DHT22;4359;49.358;11.256;2022-08-24T04:26:22;11.00;99.90
8643;DHT22;4359;49.358;11.256;2022-08-24T04:28:48;11.00;99.90
8643;DHT22;4359;49.358;11.256;2022-08-24T04:31:14;11.00;99.90
8643;DHT22;4359;49.358;11.256;2022-08-24T04:33:42;11.10;99.90
8643;DHT22;4359;49.358;11.256;2022-08-24T04:36:09;11.40;99.90
8643;DHT22;4359;49.358;11.256;2022-08-24T04:38:36;11.70;99.90
8643;DHT22;4359;49.358;11.256;2022-08-24T04:41:08;11.80;99.90
8643;DHT22;4359;49.358;11.256;2022-08-24T04:43:35;11.80;99.90
8643;DHT22;4359;49.358;11.256;2022-08-24T04:46:04;11.90;99.90
8643;DHT22;4359;49.358;11.256;2022-08-24T04:48:30;11.80;99.90
8643;DHT22;4359;49.358;11.256;2022-08-24T04:51:01;11.80;99.90
8643;DHT22;4359;49.358;11.256;2022-08-24T04:53:27;11.80;99.90
8643;DHT22;4359;49.358;11.256;2022-08-24T04:55:53;11.70;99.90
8643;DHT22;4359;49.358;11.256;2022-08-24T04:58:18;11.60;99.90
8643;DHT22;4359;49.358;11.256;2022-08-24T05:00:45;11.60;99.90
8643;DHT22;4359;49.358;11.256;2022-08-24T05:03:11;11.60;99.90
8643;DHT22;4359;49.358;11.256;2022-08-24T05:05:42;11.60;99.90
8643;DHT22;4359;49.358;11.256;2022-08-24T05:08:09;11.60;99.90
8643;DHT22;4359;49.358;11.256;2022-08-24T05:10:37;11.70;99.90
8643;DHT22;4359;49.358;11.256;2022-08-24T05:13:04;11.80;99.90
8643;DHT22;4359;49.358;11.256;2022-08-24T05:15:29;12.00;99.90
8643;DHT22;4359;49.358;11.256;2022-08-24T05:17:55;12.20;99.90
8643;DHT22;4359;49.358;11.256;2022-08-24T05:20:21;12.30;99.90
8643;DHT22;4359;49.358;11.256;2022-08-24T05:22:47;12.50;99.90
8643;DHT22;4359;49.358;11.256;2022-08-24T05:25:12;12.50;99.90
8643;DHT22;4359;49.358;11.256;2022-08-24T05:27:39;12.50;99.90
8643;DHT22;4359;49.358;11.256;2022-08-24T05:30:05;12.60;99.90
8643;DHT22;4359;49.358;11.256;2022-08-24T05:32:31;12.70;99.90
8643;DHT22;4359;49.358;11.256;2022-08-24T05:34:59;12.80;99.90
8643;DHT22;4359;49.358;11.256;2022-08-24T05:37:25;13.00;99.90
8643;DHT22;4359;49.358;11.256;2022-08-24T05:39:51;13.30;99.90
8643;DHT22;4359;49.358;11.256;2022-08-24T05:42:17;13.50;99.90
8643;DHT22;4359;49.358;11.256;2022-08-24T05:44:42;13.60;99.90
8643;DHT22;4359;49.358;11.256;2022-08-24T05:47:08;13.90;99.90
8643;DHT22;4359;49.358;11.256;2022-08-24T05:49:34;14.00;99.90
8643;DHT22;4359;49.358;11.256;2022-08-24T05:52:00;14.20;99.90
8643;DHT22;4359;49.358;11.256;2022-08-24T05:54:26;14.30;99.90
8643;DHT22;4359;49.358;11.256;2022-08-24T05:56:52;14.40;99.90
8643;DHT22;4359;49.358;11.256;2022-08-24T05:59:19;14.60;99.90
8643;DHT22;4359;49.358;11.256;2022-08-24T06:01:47;14.80;99.90
8643;DHT22;4359;49.358;11.256;2022-08-24T06:04:12;15.00;99.90
8643;DHT22;4359;49.358;11.256;2022-08-24T06:06:39;15.20;99.90
8643;DHT22;4359;49.358;11.256;2022-08-24T06:09:04;15.50;99.90
8643;DHT22;4359;49.358;11.256;2022-08-24T06:11:33;15.70;99.90
8643;DHT22;4359;49.358;11.256;2022-08-24T06:14:06;15.90;99.90
8643;DHT22;4359;49.358;11.256;2022-08-24T06:16:37;16.20;99.90
8643;DHT22;4359;49.358;11.256;2022-08-24T06:19:05;16.40;99.90
8643;DHT22;4359;49.358;11.256;2022-08-24T06:21:32;16.70;99.90
8643;DHT22;4359;49.358;11.256;2022-08-24T06:23:59;17.00;99.90
8643;DHT22;4359;49.358;11.256;2022-08-24T06:26:25;17.30;99.90
8643;DHT22;4359;49.358;11.256;2022-08-24T06:29:10;17.50;99.90
8643;DHT22;4359;49.358;11.256;2022-08-24T06:31:40;17.80;99.90
8643;DHT22;4359;49.358;11.256;2022-08-24T06:34:07;18.10;99.90
8643;DHT22;4359;49.358;11.256;2022-08-24T06:36:33;18.40;99.90
8643;DHT22;4359;49.358;11.256;2022-08-24T06:38:59;18.60;99.90
8643;DHT22;4359;49.358;11.256;2022-08-24T06:41:24;18.80;99.90
8643;DHT22;4359;49.358;11.256;2022-08-24T06:43:51;19.00;99.90
8643;DHT22;4359;49.358;11.256;2022-08-24T06:46:17;19.30;99.90
8643;DHT22;4359;49.358;11.256;2022-08-24T06:48:43;19.50;99.90
8643;DHT22;4359;49.358;11.256;2022-08-24T06:51:12;19.60;99.90
8643;DHT22;4359;49.358;11.256;2022-08-24T06:53:38;19.80;99.90
8643;DHT22;4359;49.358;11.256;2022-08-24T06:56:05;20.10;99.90
8643;DHT22;4359;49.358;11.256;2022-08-24T06:58:31;20.30;99.90
8643;DHT22;4359;49.358;11.256;2022-08-24T07:00:57;20.50;99.90
8643;DHT22;4359;49.358;11.256;2022-08-24T07:03:24;20.70;99.90
8643;DHT22;4359;49.358;11.256;2022-08-24T07:05:55;20.80;99.90
8643;DHT22;4359;49.358;11.256;2022-08-24T07:08:22;21.00;99.90
8643;DHT22;4359;49.358;11.256;2022-08-24T07:10:47;21.30;99.90
8643;DHT22;4359;49.358;11.256;2022-08-24T07:13:14;21.40;99.90
8643;DHT22;4359;49.358;11.256;2022-08-24T07:15:41;21.60;99.90
8643;DHT22;4359;49.358;11.256;2022-08-24T07:18:07;21.80;99.90
8643;DHT22;4359;49.358;11.256;2022-08-24T07:20:36;21.90;99.90
8643;DHT22;4359;49.358;11.256;2022-08-24T07:23:03;21.90;99.90
8643;DHT22;4359;49.358;11.256;2022-08-24T07:25:32;22.20;99.90
8643;DHT22;4359;49.358;11.256;2022-08-24T07:27:58;22.40;99.90
8643;DHT22;4359;49.358;11.256;2022-08-24T07:30:26;22.80;99.90
8643;DHT22;4359;49.358;11.256;2022-08-24T07:32:52;23.20;99.90
8643;DHT22;4359;49.358;11.256;2022-08-24T07:35:18;23.50;99.90
8643;DHT22;4359;49.358;11.256;2022-08-24T07:37:44;24.10;99.90
8643;DHT22;4359;49.358;11.256;2022-08-24T07:40:10;24.30;99.90
8643;DHT22;4359;49.358;11.256;2022-08-24T07:42:35;24.50;99.90
8643;DHT22;4359;49.358;11.256;2022-08-24T07:45:02;24.70;99.90
8643;DHT22;4359;49.358;11.256;2022-08-24T07:47:28;25.10;99.90
8643;DHT22;4359;49.358;11.256;2022-08-24T07:49:53;25.20;99.90
8643;DHT22;4359;49.358;11.256;2022-08-24T07:52:19;25.20;99.90
8643;DHT22;4359;49.358;11.256;2022-08-24T07:54:45;25.30;99.90
8643;DHT22;4359;49.358;11.256;2022-08-24T07:57:11;25.20;99.90
8643;DHT22;4359;49.358;11.256;2022-08-24T07:59:37;25.60;99.90
8643;DHT22;4359;49.358;11.256;2022-08-24T08:02:03;25.90;99.90
8643;DHT22;4359;49.358;11.256;2022-08-24T08:04:29;25.50;99.90
8643;DHT22;4359;49.358;11.256;2022-08-24T08:06:56;25.00;99.90
8643;DHT22;4359;49.358;11.256;2022-08-24T08:09:22;24.50;99.90
8643;DHT22;4359;49.358;11.256;2022-08-24T08:11:48;24.20;99.90
8643;DHT22;4359;49.358;11.256;2022-08-24T08:14:14;24.70;99.90
8643;DHT22;4359;49.358;11.256;2022-08-24T08:16:40;25.30;99.90
8643;DHT22;4359;49.358;11.256;2022-08-24T08:19:06;25.80;99.90
8643;DHT22;4359;49.358;11.256;2022-08-24T08:21:32;26.00;99.90
8643;DHT22;4359;49.358;11.256;2022-08-24T08:24:16;26.30;99.90
8643;DHT22;4359;49.358;11.256;2022-08-24T08:26:44;26.60;99.90
8643;DHT22;4359;49.358;11.256;2022-08-24T08:29:11;26.50;99.90
8643;DHT22;4359;49.358;11.256;2022-08-24T08:31:39;26.60;99.90
8643;DHT22;4359;49.358;11.256;2022-08-24T08:34:05;26.50;99.90
8643;DHT22;4359;49.358;11.256;2022-08-24T08:36:31;26.50;99.90
8643;DHT22;4359;49.358;11.256;2022-08-24T08:38:57;26.70;99.90
8643;DHT22;4359;49.358;11.256;2022-08-24T08:44:47;26.50;99.90
8643;DHT22;4359;49.358;11.256;2022-08-24T08:55:48;27.10;99.90
8643;DHT22;4359;49.358;11.256;2022-08-24T09:01:11;27.40;99.90
8643;DHT22;4359;49.358;11.256;2022-08-24T09:56:56;27.00;99.90
8643;DHT22;4359;49.358;11.256;2022-08-24T09:59:55;26.60;99.90
8643;DHT22;4359;49.358;11.256;2022-08-24T10:05:38;27.30;99.90
8643;DHT22;4359;49.358;11.256;2022-08-24T10:11:09;28.20;99.90
8643;DHT22;4359;49.358;11.256;2022-08-24T10:13:54;28.20;99.90
8643;DHT22;4359;49.358;11.256;2022-08-24T10:36:40;30.10;99.90
8643;DHT22;4359;49.358;11.256;2022-08-24T10:53:51;30.10;99.90
8643;DHT22;4359;49.358;11.256;2022-08-24T10:56:42;30.00;99.90
8643;DHT22;4359;49.358;11.256;2022-08-24T10:59:29;30.50;99.90
8643;DHT22;4359;49.358;11.256;2022-08-24T11:04:30;30.60;99.90
8643;DHT22;4359;49.358;11.256;2022-08-24T11:12:24;31.10;99.30
8643;DHT22;4359;49.358;11.256;2022-08-24T11:14:53;31.40;99.80
8643;DHT22;4359;49.358;11.256;2022-08-24T11:17:23;31.90;99.40
8643;DHT22;4359;49.358;11.256;2022-08-24T11:19:49;31.80;98.70
8643;DHT22;4359;49.358;11.256;2022-08-24T11:25:21;31.00;99.90
8643;DHT22;4359;49.358;11.256;2022-08-24T11:28:03;31.40;99.30
8643;DHT22;4359;49.358;11.256;2022-08-24T11:30:29;31.50;99.30
8643;DHT22;4359;49.358;11.256;2022-08-24T11:33:02;31.50;98.40
8643;DHT22;4359;49.358;11.256;2022-08-24T11:41:15;30.50;98.90
8643;DHT22;4359;49.358;11.256;2022-08-24T11:44:06;29.60;99.90
8643;DHT22;4359;49.358;11.256;2022-08-24T11:50:06;29.90;99.50
8643;DHT22;4359;49.358;11.256;2022-08-24T11:52:48;30.30;99.40
8643;DHT22;4359;49.358;11.256;2022-08-24T11:55:18;29.80;98.70
8643;DHT22;4359;49.358;11.256;2022-08-24T12:01:17;30.00;99.80
8643;DHT22;4359;49.358;11.256;2022-08-24T12:06:49;31.20;98.10
8643;DHT22;4359;49.358;11.256;2022-08-24T12:14:56;31.80;96.70
8643;DHT22;4359;49.358;11.256;2022-08-24T12:17:46;31.40;97.60
8643;DHT22;4359;49.358;11.256;2022-08-24T12:20:32;30.90;97.70
8643;DHT22;4359;49.358;11.256;2022-08-24T12:23:03;29.80;98.10
8643;DHT22;4359;49.358;11.256;2022-08-24T12:25:31;29.20;99.90
8643;DHT22;4359;49.358;11.256;2022-08-24T12:28:23;28.90;99.40
8643;DHT22;4359;49.358;11.256;2022-08-24T12:30:52;28.30;99.90
8643;DHT22;4359;49.358;11.256;2022-08-24T12:33:24;28.10;99.90
8643;DHT22;4359;49.358;11.256;2022-08-24T12:35:57;28.20;99.90
8643;DHT22;4359;49.358;11.256;2022-08-24T12:38:39;28.30;99.90
8643;DHT22;4359;49.358;11.256;2022-08-24T12:44:14;28.70;99.90
8643;DHT22;4359;49.358;11.256;2022-08-24T12:46:41;29.20;99.60
8643;DHT22;4359;49.358;11.256;2022-08-24T12:49:27;28.90;99.90
8643;DHT22;4359;49.358;11.256;2022-08-24T12:52:12;28.40;99.90
8643;DHT22;4359;49.358;11.256;2022-08-24T12:55:21;28.30;99.90
8643;DHT22;4359;49.358;11.256;2022-08-24T12:58:07;28.10;99.90
8643;DHT22;4359;49.358;11.256;2022-08-24T13:00:45;28.20;99.90
8643;DHT22;4359;49.358;11.256;2022-08-24T13:03:41;29.00;99.90
8643;DHT22;4359;49.358;11.256;2022-08-24T13:06:18;29.90;98.50
8643;DHT22;4359;49.358;11.256;2022-08-24T13:08:47;30.80;98.00
8643;DHT22;4359;49.358;11.256;2022-08-24T13:11:29;31.50;97.30
8643;DHT22;4359;49.358;11.256;2022-08-24T13:21:44;29.90;98.60
8643;DHT22;4359;49.358;11.256;2022-08-24T13:32:42;28.50;99.90
8643;DHT22;4359;49.358;11.256;2022-08-24T13:35:34;28.10;99.90
8643;DHT22;4359;49.358;11.256;2022-08-24T13:41:09;28.90;99.90
8643;DHT22;4359;49.358;11.256;2022-08-24T13:51:46;31.20;96.00
8643;DHT22;4359;49.358;11.256;2022-08-24T13:54:19;31.60;96.00
8643;DHT22;4359;49.358;11.256;2022-08-24T13:56:59;31.70;95.70
8643;DHT22;4359;49.358;11.256;2022-08-24T14:24:44;28.00;99.80
8643;DHT22;4359;49.358;11.256;2022-08-24T14:27:44;27.60;99.90
8643;DHT22;4359;49.358;11.256;2022-08-24T14:44:00;29.00;97.90
8643;DHT22;4359;49.358;11.256;2022-08-24T14:46:54;28.90;99.10
8643;DHT22;4359;49.358;11.256;2022-08-24T14:49:57;28.70;98.70
8643;DHT22;4359;49.358;11.256;2022-08-24T15:03:56;28.30;99.60
8643;DHT22;4359;49.358;11.256;2022-08-24T15:09:29;27.80;99.90
8643;DHT22;4359;49.358;11.256;2022-08-24T15:29:10;27.40;99.90
8643;DHT22;4359;49.358;11.256;2022-08-24T15:31:38;27.40;99.90
8643;DHT22;4359;49.358;11.256;2022-08-24T15:34:04;27.40;99.90
8643;DHT22;4359;49.358;11.256;2022-08-24T15:36:31;27.50;99.90
8643;DHT22;4359;49.358;11.256;2022-08-24T15:38:59;27.40;99.90
8643;DHT22;4359;49.358;11.256;2022-08-24T15:41:38;27.20;99.90
8643;DHT22;4359;49.358;11.256;2022-08-24T15:44:21;27.30;99.90
8643;DHT22;4359;49.358;11.256;2022-08-24T15:46:52;27.30;99.90
8643;DHT22;4359;49.358;11.256;2022-08-24T15:49:35;27.30;99.90
8643;DHT22;4359;49.358;11.256;2022-08-24T15:52:07;27.20;99.90
8643;DHT22;4359;49.358;11.256;2022-08-24T15:54:40;27.10;99.90
8643;DHT22;4359;49.358;11.256;2022-08-24T15:57:28;26.80;99.90
8643;DHT22;4359;49.358;11.256;2022-08-24T16:02:31;26.70;99.90
8643;DHT22;4359;49.358;11.256;2022-08-24T16:10:29;26.80;99.90
8643;DHT22;4359;49.358;11.256;2022-08-24T16:15:46;27.00;99.90
8643;DHT22;4359;49.358;11.256;2022-08-24T16:18:13;27.10;99.90
8643;DHT22;4359;49.358;11.256;2022-08-24T16:20:39;27.10;99.90
8643;DHT22;4359;49.358;11.256;2022-08-24T16:23:09;26.80;99.90
8643;DHT22;4359;49.358;11.256;2022-08-24T16:25:45;26.60;99.90
8643;DHT22;4359;49.358;11.256;2022-08-24T16:30:56;26.50;99.90
8643;DHT22;4359;49.358;11.256;2022-08-24T16:36:12;26.40;99.90
8643;DHT22;4359;49.358;11.256;2022-08-24T16:38:39;26.30;99.90
8643;DHT22;4359;49.358;11.256;2022-08-24T16:41:09;26.20;99.90
8643;DHT22;4359;49.358;11.256;2022-08-24T16:43:37;26.20;99.90
8643;DHT22;4359;49.358;11.256;2022-08-24T16:46:06;26.20;99.90
8643;DHT22;4359;49.358;11.256;2022-08-24T16:48:32;26.20;99.90
8643;DHT22;4359;49.358;11.256;2022-08-24T16:50:58;26.00;99.90
8643;DHT22;4359;49.358;11.256;2022-08-24T16:53:24;25.90;99.90
8643;DHT22;4359;49.358;11.256;2022-08-24T16:55:50;25.70;99.90
8643;DHT22;4359;49.358;11.256;2022-08-24T16:58:17;25.60;99.90
8643;DHT22;4359;49.358;11.256;2022-08-24T17:00:43;25.50;99.90
8643;DHT22;4359;49.358;11.256;2022-08-24T17:03:13;25.40;99.90
8643;DHT22;4359;49.358;11.256;2022-08-24T17:05:39;25.30;99.90
8643;DHT22;4359;49.358;11.256;2022-08-24T17:08:04;25.10;99.90
8643;DHT22;4359;49.358;11.256;2022-08-24T17:10:30;25.00;99.90
8643;DHT22;4359;49.358;11.256;2022-08-24T17:12:56;24.90;99.90
8643;DHT22;4359;49.358;11.256;2022-08-24T17:15:22;24.90;99.90
8643;DHT22;4359;49.358;11.256;2022-08-24T17:18:03;24.90;99.90
8643;DHT22;4359;49.358;11.256;2022-08-24T17:20:30;24.80;99.90
8643;DHT22;4359;49.358;11.256;2022-08-24T17:22:57;24.80;99.90
8643;DHT22;4359;49.358;11.256;2022-08-24T17:25:24;24.80;99.90
8643;DHT22;4359;49.358;11.256;2022-08-24T17:27:51;24.70;99.90
8643;DHT22;4359;49.358;11.256;2022-08-24T17:30:18;24.60;99.90
8643;DHT22;4359;49.358;11.256;2022-08-24T17:32:45;24.50;99.90
8643;DHT22;4359;49.358;11.256;2022-08-24T17:35:12;24.40;99.90
8643;DHT22;4359;49.358;11.256;2022-08-24T17:37:38;24.40;99.90
8643;DHT22;4359;49.358;11.256;2022-08-24T17:40:07;24.30;99.90
8643;DHT22;4359;49.358;11.256;2022-08-24T17:42:35;24.20;99.90
8643;DHT22;4359;49.358;11.256;2022-08-24T17:45:01;24.20;99.90
8643;DHT22;4359;49.358;11.256;2022-08-24T17:47:27;24.20;99.90
8643;DHT22;4359;49.358;11.256;2022-08-24T17:49:52;24.10;99.90
8643;DHT22;4359;49.358;11.256;2022-08-24T17:52:18;23.90;99.90
8643;DHT22;4359;49.358;11.256;2022-08-24T17:54:44;23.80;99.90
8643;DHT22;4359;49.358;11.256;2022-08-24T17:57:13;23.60;99.90
8643;DHT22;4359;49.358;11.256;2022-08-24T17:59:39;23.30;99.90
8643;DHT22;4359;49.358;11.256;2022-08-24T18:02:08;23.10;99.90
8643;DHT22;4359;49.358;11.256;2022-08-24T18:04:35;22.90;99.90
8643;DHT22;4359;49.358;11.256;2022-08-24T18:07:05;22.70;99.90
8643;DHT22;4359;49.358;11.256;2022-08-24T18:09:44;22.60;99.90
8643;DHT22;4359;49.358;11.256;2022-08-24T18:12:14;22.40;99.90
8643;DHT22;4359;49.358;11.256;2022-08-24T18:14:41;22.20;99.90
8643;DHT22;4359;49.358;11.256;2022-08-24T18:17:11;22.00;99.90
8643;DHT22;4359;49.358;11.256;2022-08-24T18:19:39;21.70;99.90
8643;DHT22;4359;49.358;11.256;2022-08-24T18:22:05;21.50;99.90
8643;DHT22;4359;49.358;11.256;2022-08-24T18:24:31;21.30;99.90
8643;DHT22;4359;49.358;11.256;2022-08-24T18:27:03;21.20;99.90
8643;DHT22;4359;49.358;11.256;2022-08-24T18:29:30;21.00;99.90
8643;DHT22;4359;49.358;11.256;2022-08-24T18:31:57;20.80;99.90
8643;DHT22;4359;49.358;11.256;2022-08-24T18:34:23;20.70;99.90
8643;DHT22;4359;49.358;11.256;2022-08-24T18:36:50;20.50;99.90
8643;DHT22;4359;49.358;11.256;2022-08-24T18:39:16;20.30;99.90
8643;DHT22;4359;49.358;11.256;2022-08-24T18:41:44;20.20;99.90
8643;DHT22;4359;49.358;11.256;2022-08-24T18:44:11;20.10;99.90
8643;DHT22;4359;49.358;11.256;2022-08-24T18:46:38;20.00;99.90
8643;DHT22;4359;49.358;11.256;2022-08-24T18:49:05;19.90;99.90
8643;DHT22;4359;49.358;11.256;2022-08-24T18:51:32;20.10;99.90
8643;DHT22;4359;49.358;11.256;2022-08-24T18:54:10;20.10;99.90
8643;DHT22;4359;49.358;11.256;2022-08-24T18:56:36;20.20;99.90
8643;DHT22;4359;49.358;11.256;2022-08-24T18:59:03;20.10;99.90
8643;DHT22;4359;49.358;11.256;2022-08-24T19:01:29;20.10;99.90
8643;DHT22;4359;49.358;11.256;2022-08-24T19:04:16;20.20;99.90
8643;DHT22;4359;49.358;11.256;2022-08-24T19:06:42;20.10;99.90
8643;DHT22;4359;49.358;11.256;2022-08-24T19:09:07;20.00;99.90
8643;DHT22;4359;49.358;11.256;2022-08-24T19:11:33;19.90;99.90
8643;DHT22;4359;49.358;11.256;2022-08-24T19:13:59;19.90;99.90
8643;DHT22;4359;49.358;11.256;2022-08-24T19:16:25;19.80;99.90
8643;DHT22;4359;49.358;11.256;2022-08-24T19:18:50;19.70;99.90
8643;DHT22;4359;49.358;11.256;2022-08-24T19:21:16;19.60;99.90
8643;DHT22;4359;49.358;11.256;2022-08-24T19:23:43;19.50;99.90
8643;DHT22;4359;49.358;11.256;2022-08-24T19:26:09;19.40;99.90
8643;DHT22;4359;49.358;11.256;2022-08-24T19:28:35;19.40;99.90
8643;DHT22;4359;49.358;11.256;2022-08-24T19:31:03;19.40;99.90
8643;DHT22;4359;49.358;11.256;2022-08-24T19:33:36;19.30;99.90
8643;DHT22;4359;49.358;11.256;2022-08-24T19:36:02;19.20;99.90
8643;DHT22;4359;49.358;11.256;2022-08-24T19:38:28;19.10;99.90
8643;DHT22;4359;49.358;11.256;2022-08-24T19:40:55;19.10;99.90
8643;DHT22;4359;49.358;11.256;2022-08-24T19:43:26;19.00;99.90
8643;DHT22;4359;49.358;11.256;2022-08-24T19:45:55;19.00;99.90
8643;DHT22;4359;49.358;11.256;2022-08-24T19:48:28;19.00;99.90
8643;DHT22;4359;49.358;11.256;2022-08-24T19:50:55;19.00;99.90
8643;DHT22;4359;49.358;11.256;2022-08-24T19:53:21;18.90;99.90
8643;DHT22;4359;49.358;11.256;2022-08-24T19:55:48;18.80;99.90
8643;DHT22;4359;49.358;11.256;2022-08-24T19:58:27;18.80;99.90
8643;DHT22;4359;49.358;11.256;2022-08-24T20:01:02;18.80;99.90
8643;DHT22;4359;49.358;11.256;2022-08-24T20:03:28;18.70;99.90
8643;DHT22;4359;49.358;11.256;2022-08-24T20:05:54;18.60;99.90
8643;DHT22;4359;49.358;11.256;2022-08-24T20:08:20;18.50;99.90
8643;DHT22;4359;49.358;11.256;2022-08-24T20:10:46;18.40;99.90
8643;DHT22;4359;49.358;11.256;2022-08-24T20:13:12;18.40;99.90
8643;DHT22;4359;49.358;11.256;2022-08-24T20:15:38;18.30;99.90
8643;DHT22;4359;49.358;11.256;2022-08-24T20:18:04;18.30;99.90
8643;DHT22;4359;49.358;11.256;2022-08-24T20:20:30;18.30;99.90
8643;DHT22;4359;49.358;11.256;2022-08-24T20:22:57;18.20;99.90
8643;DHT22;4359;49.358;11.256;2022-08-24T20:25:28;18.10;99.90